עמוד ראשי
תמונות לווין תחזית 10-יוםאקליםתחזית ים סופות טרופיות ברקים שדות תעופהשאלות נפוצות עלון אודות
מזג אוויר : אירופה אפריקה אמריקה הצפונית אמריקה הדרומית אסיה אוסטרליה-אוקיאניה אחרים
שפות איש קשר

שטוטגרט, גרמניה

קו רוחב: 48-41N, קו אורך: 009-13E, גובה: 396מטר


METAR: EDDS 190050Z 06006KT CAVOK 02/M02 Q1022
TAF: EDDS 182300Z 1900/1924 04004KT CAVOK BECMG 1909/1911 07010KT BECMG 1917/1919 05004KT

זמן: 03:02 (01:02 UTC)

תצפית מזג אוויר נוכחית

הדו"ח נערך לפני 12דקות, בשעה 00:50 UTC
רוח 6קשר מכיוון מזרח/צפון-מזרח
טמפרטורת 2 צלסיוס
לחות 75%
לחץ 1022 hPa
ראות 10 קילומטר או יותר
ללא עננים שבסיסם נמוך מ 1500 רגל או קומולונימבוס

שנה יחידות

תחזית

הדו"ח נערך לפני 2 שעות ו 2דקות, בשעה 23:00 UTC
תחזית בתוקף מ 19 ב 00 UTC עד 19 ב 24 UTC
רוח 4קשר מכיוון צפון-מזרח
ראות 10 קילומטר או יותר
ללא עננים שבסיסם נמוך מ 1500 רגל או קומולונימבוס
יעשה מ
19 ב 09 UTC עד 19 ב 11 UTC
רוח 10קשר מכיוון מזרח/צפון-מזרח
יעשה מ
19 ב 17 UTC עד 19 ב 19 UTC
רוח 4קשר מכיוון צפון-מזרח
המידע באתר זה מותנה של תניית פטור
מזג אוויר : אירופה אפריקה אמריקה הצפונית אמריקה הדרומית אסיה אוסטרליה-אוקיאניה אחרים
תמונות לווין תחזית 10-יוםאקליםתחזית ים סופות טרופיות ברקים שדות תעופהשאלות נפוצות שפות איש קשר עלון אודות